Time,TemperatureF,DewpointF,PressureIn,WindDirection,WindDirectionDegrees,WindSpeedMPH,WindSpeedGustMPH,Humidity,HourlyPrecipIn,Conditions,Clouds,dailyrainin,SoftwareType,DateUTC
2013-07-22 00:03:00,73.0,70.6,29.09,East,90,0.0,0.0,92,0.00,,---,0.00,VWS V14.01,2013-07-22 05:03:00,
2013-07-22 00:09:00,72.9,70.4,29.09,SW,225,0.0,0.0,92,0.00,,---,0.00,VWS V14.01,2013-07-22 05:09:00,
2013-07-22 00:14:00,72.7,70.2,29.09,SW,225,0.0,0.0,92,0.00,,---,0.00,VWS V14.01,2013-07-22 05:14:00,
2013-07-22 00:19:00,72.5,70.1,29.09,SW,225,0.0,0.0,92,0.00,,---,0.00,VWS V14.01,2013-07-22 05:19:00,
2013-07-22 00:24:00,72.3,69.9,29.09,SE,135,0.0,0.0,92,0.00,,---,0.00,VWS V14.01,2013-07-22 05:24:00,
2013-07-22 00:29:00,72.1,69.7,29.09,SE,135,0.0,0.0,92,0.00,,---,0.00,VWS V14.01,2013-07-22 05:29:00,
2013-07-22 00:34:00,71.8,69.3,29.09,SE,135,0.0,0.0,92,0.00,,---,0.00,VWS V14.01,2013-07-22 05:34:00,
2013-07-22 00:39:00,71.8,69.3,29.09,SSE,158,2.0,2.0,92,0.00,,---,0.00,VWS V14.01,2013-07-22 05:39:00,
2013-07-22 00:44:00,71.8,69.3,29.09,SSW,202,0.0,1.6,92,0.00,,---,0.00,VWS V14.01,2013-07-22 05:44:00,
2013-07-22 00:49:00,71.6,68.8,29.09,South,180,0.0,0.0,91,0.00,,---,0.00,VWS V14.01,2013-07-22 05:49:00,
2013-07-22 00:54:00,71.2,68.5,29.09,South,180,0.0,0.0,91,0.00,,---,0.00,VWS V14.01,2013-07-22 05:54:00,
2013-07-22 00:59:00,71.1,68.3,29.09,South,180,0.0,0.0,91,0.00,,---,0.00,VWS V14.01,2013-07-22 05:59:00,
2013-07-22 01:05:00,70.9,68.1,29.09,South,180,0.0,0.0,91,0.00,,---,0.00,VWS V14.01,2013-07-22 06:05:00,
2013-07-22 01:10:00,70.7,67.9,29.09,South,180,0.0,0.0,91,0.00,,---,0.00,VWS V14.01,2013-07-22 06:10:00,
2013-07-22 01:15:00,70.5,67.8,29.09,South,180,0.0,0.0,91,0.00,,---,0.00,VWS V14.01,2013-07-22 06:15:00,
2013-07-22 01:20:00,70.5,67.8,29.09,South,180,0.0,0.0,91,0.00,,---,0.00,VWS V14.01,2013-07-22 06:20:00,
2013-07-22 01:25:00,70.5,67.8,29.09,South,180,0.0,0.9,91,0.00,,---,0.00,VWS V14.01,2013-07-22 06:25:00,
2013-07-22 01:30:00,70.5,67.8,29.09,South,180,0.0,0.0,91,0.00,,---,0.00,VWS V14.01,2013-07-22 06:30:00,
2013-07-22 01:35:00,70.3,67.6,29.09,South,180,0.0,0.0,91,0.00,,---,0.00,VWS V14.01,2013-07-22 06:35:00,
2013-07-22 01:40:00,70.0,67.2,29.09,ENE,68,0.0,0.0,91,0.00,,---,0.00,VWS V14.01,2013-07-22 06:40:00,
2013-07-22 01:45:00,70.0,67.2,29.06,ENE,68,0.0,0.0,91,0.00,,---,0.00,VWS V14.01,2013-07-22 06:45:00,
2013-07-22 01:50:00,69.8,67.1,29.06,ENE,68,0.0,0.0,91,0.00,,---,0.00,VWS V14.01,2013-07-22 06:50:00,
2013-07-22 01:55:00,69.8,67.4,29.06,ENE,68,0.0,0.0,92,0.00,,---,0.00,VWS V14.01,2013-07-22 06:55:00,
2013-07-22 02:00:00,69.8,67.4,29.06,NNW,338,0.0,0.0,92,0.00,,---,0.00,VWS V14.01,2013-07-22 07:00:00,
2013-07-22 02:06:00,69.8,67.4,29.06,West,270,0.0,0.0,92,0.00,,---,0.00,VWS V14.01,2013-07-22 07:06:00,
2013-07-22 02:11:00,69.6,67.2,29.06,West,270,0.0,0.0,92,0.00,,---,0.00,VWS V14.01,2013-07-22 07:11:00,
2013-07-22 02:16:00,69.6,67.2,29.06,West,270,0.0,0.0,92,0.00,,---,0.00,VWS V14.01,2013-07-22 07:16:00,
2013-07-22 02:21:00,69.4,67.0,29.06,WNW,292,0.0,0.0,92,0.00,,---,0.00,VWS V14.01,2013-07-22 07:21:00,
2013-07-22 02:26:00,69.6,67.5,29.06,WNW,292,0.0,0.0,93,0.00,,---,0.00,VWS V14.01,2013-07-22 07:26:00,
2013-07-22 02:31:00,69.6,67.5,29.06,SSW,202,0.0,0.0,93,0.00,,---,0.00,VWS V14.01,2013-07-22 07:31:00,
2013-07-22 02:36:00,69.6,67.2,29.06,SSW,202,0.0,0.0,92,0.00,,---,0.00,VWS V14.01,2013-07-22 07:36:00,
2013-07-22 02:41:00,69.6,67.5,29.06,SSW,202,0.0,0.0,93,0.00,,---,0.00,VWS V14.01,2013-07-22 07:41:00,
2013-07-22 02:46:00,69.6,67.5,29.06,SSW,202,0.0,0.0,93,0.00,,---,0.00,VWS V14.01,2013-07-22 07:46:00,
2013-07-22 02:52:00,69.4,67.3,29.06,SSW,202,0.0,0.0,93,0.00,,---,0.00,VWS V14.01,2013-07-22 07:52:00,
2013-07-22 02:57:00,69.4,67.3,29.06,SE,135,0.0,0.0,93,0.00,,---,0.00,VWS V14.01,2013-07-22 07:57:00,
2013-07-22 03:02:00,69.3,67.2,29.06,SE,135,0.0,0.0,93,0.00,,---,0.00,VWS V14.01,2013-07-22 08:02:00,
2013-07-22 03:07:00,69.1,67.0,29.06,SE,135,0.0,0.0,93,0.00,,---,0.00,VWS V14.01,2013-07-22 08:07:00,
2013-07-22 03:12:00,69.1,67.0,29.03,ESE,112,0.0,0.0,93,0.00,,---,0.00,VWS V14.01,2013-07-22 08:12:00,
2013-07-22 03:17:00,68.9,66.8,29.03,ESE,112,0.0,0.0,93,0.00,,---,0.00,VWS V14.01,2013-07-22 08:17:00,
2013-07-22 03:22:00,68.9,66.8,29.03,ESE,112,0.0,0.0,93,0.00,,---,0.00,VWS V14.01,2013-07-22 08:22:00,
2013-07-22 03:27:00,68.7,66.6,29.03,ESE,112,0.0,0.0,93,0.00,,---,0.00,VWS V14.01,2013-07-22 08:27:00,
2013-07-22 03:32:00,68.7,66.6,29.03,SE,135,0.0,0.0,93,0.00,,---,0.00,VWS V14.01,2013-07-22 08:32:00,
2013-07-22 03:37:00,68.5,66.4,29.03,ESE,112,0.0,0.0,93,0.00,,---,0.00,VWS V14.01,2013-07-22 08:37:00,
2013-07-22 03:43:00,68.5,66.4,29.03,SE,135,0.0,0.0,93,0.00,,---,0.00,VWS V14.01,2013-07-22 08:43:00,
2013-07-22 03:48:00,68.4,66.3,29.03,ESE,112,0.0,0.0,93,0.00,,---,0.00,VWS V14.01,2013-07-22 08:48:00,
2013-07-22 03:53:00,68.4,66.3,29.03,ESE,112,0.0,0.0,93,0.00,,---,0.00,VWS V14.01,2013-07-22 08:53:00,
2013-07-22 03:58:00,68.4,66.3,29.03,ESE,112,0.0,0.0,93,0.00,,---,0.00,VWS V14.01,2013-07-22 08:58:00,
2013-07-22 04:03:00,68.4,66.3,29.03,ESE,112,0.0,0.0,93,0.00,,---,0.00,VWS V14.01,2013-07-22 09:03:00,
2013-07-22 04:08:00,68.2,66.1,29.03,ESE,112,0.0,0.0,93,0.00,,---,0.00,VWS V14.01,2013-07-22 09:08:00,
2013-07-22 04:13:00,68.0,65.9,29.03,ESE,112,0.0,0.0,93,0.00,,---,0.00,VWS V14.01,2013-07-22 09:13:00,
2013-07-22 04:18:00,68.0,65.9,29.03,SSW,202,0.0,0.0,93,0.00,,---,0.00,VWS V14.01,2013-07-22 09:18:00,
2013-07-22 04:23:00,68.0,65.9,29.03,SSW,202,0.0,0.0,93,0.00,,---,0.00,VWS V14.01,2013-07-22 09:23:00,
2013-07-22 04:28:00,68.0,65.6,29.03,SSW,202,0.0,0.0,92,0.00,,---,0.00,VWS V14.01,2013-07-22 09:28:00,
2013-07-22 04:33:00,67.6,65.6,29.03,SSW,202,0.0,0.0,93,0.00,,---,0.00,VWS V14.01,2013-07-22 09:33:00,
2013-07-22 04:38:00,67.6,65.6,29.03,East,90,0.0,0.0,93,0.00,,---,0.00,VWS V14.01,2013-07-22 09:38:00,
2013-07-22 04:43:00,67.6,65.6,29.03,East,90,0.0,0.0,93,0.00,,---,0.00,VWS V14.01,2013-07-22 09:43:00,
2013-07-22 04:48:00,67.6,65.6,29.03,East,90,0.0,0.0,93,0.00,,---,0.00,VWS V14.01,2013-07-22 09:48:00,
2013-07-22 04:53:00,67.5,65.4,29.03,East,90,0.0,0.0,93,0.00,,---,0.00,VWS V14.01,2013-07-22 09:53:00,
2013-07-22 04:59:00,67.5,65.4,29.03,East,90,0.0,0.0,93,0.00,,---,0.00,VWS V14.01,2013-07-22 09:59:00,
2013-07-22 05:04:00,67.5,65.4,29.03,East,90,0.0,0.0,93,0.00,,---,0.00,VWS V14.01,2013-07-22 10:04:00,
2013-07-22 05:09:00,67.5,65.4,29.03,East,90,0.0,0.0,93,0.00,,---,0.00,VWS V14.01,2013-07-22 10:09:00,
2013-07-22 05:14:00,67.3,65.2,29.03,ESE,112,0.0,0.0,93,0.00,,---,0.00,VWS V14.01,2013-07-22 10:14:00,
2013-07-22 05:19:00,67.3,65.2,29.03,SE,135,0.0,0.0,93,0.00,,---,0.00,VWS V14.01,2013-07-22 10:19:00,
2013-07-22 05:24:00,67.1,65.3,29.03,ESE,112,0.0,0.0,94,0.00,,---,0.00,VWS V14.01,2013-07-22 10:24:00,
2013-07-22 05:29:00,67.1,65.3,29.06,SE,135,0.0,0.0,94,0.00,,---,0.00,VWS V14.01,2013-07-22 10:29:00,
2013-07-22 05:34:00,67.1,65.3,29.06,SE,135,1.6,1.6,94,0.00,,---,0.00,VWS V14.01,2013-07-22 10:34:00,
2013-07-22 05:39:00,67.1,65.3,29.06,East,90,0.0,0.0,94,0.00,,---,0.00,VWS V14.01,2013-07-22 10:39:00,
2013-07-22 05:45:00,67.3,65.5,29.06,ENE,68,0.0,0.0,94,0.00,,---,0.00,VWS V14.01,2013-07-22 10:45:00,
2013-07-22 05:50:00,67.3,65.5,29.06,SE,135,0.0,0.0,94,0.00,,---,0.00,VWS V14.01,2013-07-22 10:50:00,
2013-07-22 05:55:00,67.5,65.7,29.06,SE,135,0.0,0.0,94,0.00,,---,0.00,VWS V14.01,2013-07-22 10:55:00,
2013-07-22 06:00:00,67.5,65.7,29.06,SSE,158,0.0,0.0,94,0.00,,---,0.00,VWS V14.01,2013-07-22 11:00:00,
2013-07-22 06:05:00,67.5,65.7,29.06,SSE,158,0.0,0.0,94,0.00,,---,0.00,VWS V14.01,2013-07-22 11:05:00,
2013-07-22 06:10:00,67.6,65.9,29.06,SSE,158,0.0,0.0,94,0.00,,---,0.00,VWS V14.01,2013-07-22 11:10:00,
2013-07-22 06:16:00,67.6,65.9,29.06,SSE,158,0.0,0.0,94,0.00,,---,0.00,VWS V14.01,2013-07-22 11:16:00,
2013-07-22 06:21:00,67.8,66.0,29.06,SSE,158,0.0,0.0,94,0.00,,---,0.00,VWS V14.01,2013-07-22 11:21:00,
2013-07-22 06:26:00,68.2,66.4,29.06,SSE,158,0.0,0.0,94,0.00,,---,0.00,VWS V14.01,2013-07-22 11:26:00,
2013-07-22 06:31:00,68.2,66.4,29.06,SSE,158,0.0,0.0,94,0.00,,---,0.00,VWS V14.01,2013-07-22 11:31:00,
2013-07-22 06:36:00,68.4,66.6,29.06,West,270,0.0,0.0,94,0.00,,---,0.00,VWS V14.01,2013-07-22 11:36:00,
2013-07-22 06:41:00,68.5,66.8,29.06,WSW,248,0.0,0.0,94,0.00,,---,0.00,VWS V14.01,2013-07-22 11:41:00,
2013-07-22 06:46:00,69.1,67.3,29.06,WSW,248,0.0,0.0,94,0.00,,---,0.00,VWS V14.01,2013-07-22 11:46:00,
2013-07-22 06:51:00,69.8,68.0,29.06,SSW,202,0.0,0.0,94,0.00,,---,0.00,VWS V14.01,2013-07-22 11:51:00,
2013-07-22 06:56:00,70.9,68.8,29.06,SSW,202,1.3,1.3,93,0.00,,---,0.00,VWS V14.01,2013-07-22 11:56:00,
2013-07-22 07:01:00,71.8,69.7,29.06,West,270,0.0,0.0,93,0.00,,---,0.00,VWS V14.01,2013-07-22 12:01:00,
2013-07-22 07:07:00,72.9,70.7,29.06,SW,225,1.1,1.1,93,0.00,,---,0.00,VWS V14.01,2013-07-22 12:07:00,
2013-07-22 07:12:00,73.8,71.3,29.06,West,270,0.0,0.0,92,0.00,,---,0.00,VWS V14.01,2013-07-22 12:12:00,
2013-07-22 07:17:00,74.8,72.4,29.06,SSW,202,0.0,2.0,92,0.00,,---,0.00,VWS V14.01,2013-07-22 12:17:00,
2013-07-22 07:22:00,75.4,72.6,29.06,WSW,248,2.0,2.0,91,0.00,,---,0.00,VWS V14.01,2013-07-22 12:22:00,
2013-07-22 07:27:00,76.1,73.0,29.06,West,270,2.9,2.9,90,0.00,,---,0.00,VWS V14.01,2013-07-22 12:27:00,
2013-07-22 07:32:00,76.8,73.7,29.06,SSW,202,2.7,3.1,90,0.00,,---,0.00,VWS V14.01,2013-07-22 12:32:00,
2013-07-22 07:37:00,77.7,74.2,29.06,West,270,2.9,3.1,89,0.00,,---,0.00,VWS V14.01,2013-07-22 12:37:00,
2013-07-22 07:42:00,78.1,74.2,29.06,WSW,248,0.0,2.0,88,0.00,,---,0.00,VWS V14.01,2013-07-22 12:42:00,
2013-07-22 07:47:00,78.4,74.2,29.06,SSW,202,1.6,1.6,87,0.00,,---,0.00,VWS V14.01,2013-07-22 12:47:00,
2013-07-22 07:52:00,78.4,73.6,29.06,SSW,202,1.3,2.5,85,0.00,,---,0.00,VWS V14.01,2013-07-22 12:52:00,
2013-07-22 07:57:00,78.8,73.6,29.06,SSW,202,3.1,3.1,84,0.00,,---,0.00,VWS V14.01,2013-07-22 12:57:00,
2013-07-22 08:03:00,79.0,73.4,29.06,SW,225,2.7,2.7,83,0.00,,---,0.00,VWS V14.01,2013-07-22 13:03:00,
2013-07-22 08:08:00,79.0,73.4,29.06,West,270,2.2,2.2,83,0.00,,---,0.00,VWS V14.01,2013-07-22 13:08:00,
2013-07-22 08:13:00,79.2,73.2,29.06,SW,225,1.1,1.1,82,0.00,,---,0.00,VWS V14.01,2013-07-22 13:13:00,
2013-07-22 08:18:00,79.3,73.4,29.06,WSW,248,2.5,3.8,82,0.00,,---,0.00,VWS V14.01,2013-07-22 13:18:00,
2013-07-22 08:23:00,79.5,73.2,29.06,SW,225,3.8,3.8,81,0.00,,---,0.00,VWS V14.01,2013-07-22 13:23:00,
2013-07-22 08:28:00,79.5,73.2,29.06,West,270,1.1,1.1,81,0.00,,---,0.00,VWS V14.01,2013-07-22 13:28:00,
2013-07-22 08:33:00,79.3,72.6,29.06,NNW,338,1.6,4.7,80,0.00,,---,0.00,VWS V14.01,2013-07-22 13:33:00,
2013-07-22 08:38:00,79.3,73.0,29.06,West,270,2.9,3.6,81,0.00,,---,0.00,VWS V14.01,2013-07-22 13:38:00,
2013-07-22 08:43:00,79.9,73.5,29.06,South,180,2.5,3.6,81,0.00,,---,0.00,VWS V14.01,2013-07-22 13:43:00,
2013-07-22 08:48:00,79.9,73.2,29.06,SW,225,4.7,4.7,80,0.00,,---,0.00,VWS V14.01,2013-07-22 13:48:00,
2013-07-22 08:53:00,80.2,73.1,29.06,NW,315,1.1,2.0,79,0.00,,---,0.00,VWS V14.01,2013-07-22 13:53:00,
2013-07-22 08:59:00,80.1,73.3,29.06,West,270,3.6,3.6,80,0.00,,---,0.00,VWS V14.01,2013-07-22 13:59:00,
2013-07-22 09:04:00,80.4,73.3,29.06,SW,225,3.4,3.4,79,0.00,,---,0.00,VWS V14.01,2013-07-22 14:04:00,
2013-07-22 09:09:00,80.6,73.5,29.06,WNW,292,2.0,4.7,79,0.00,,---,0.00,VWS V14.01,2013-07-22 14:09:00,
2013-07-22 09:14:00,81.1,73.6,29.06,SSW,202,3.1,3.1,78,0.00,,---,0.00,VWS V14.01,2013-07-22 14:14:00,
2013-07-22 09:19:00,81.1,73.6,29.06,WSW,248,3.1,3.1,78,0.00,,---,0.00,VWS V14.01,2013-07-22 14:19:00,
2013-07-22 09:24:00,81.3,73.4,29.06,WNW,292,2.7,2.7,77,0.00,,---,0.00,VWS V14.01,2013-07-22 14:24:00,
2013-07-22 09:29:00,81.3,73.4,29.06,SSW,202,0.9,3.6,77,0.00,,---,0.00,VWS V14.01,2013-07-22 14:29:00,
2013-07-22 09:34:00,81.3,73.4,29.06,SW,225,2.5,4.3,77,0.00,,---,0.00,VWS V14.01,2013-07-22 14:34:00,
2013-07-22 09:39:00,81.7,73.8,29.06,North,0,2.5,2.9,77,0.00,,---,0.00,VWS V14.01,2013-07-22 14:39:00,
2013-07-22 09:44:00,81.7,73.8,29.06,WNW,292,3.1,4.3,77,0.00,,---,0.00,VWS V14.01,2013-07-22 14:44:00,
2013-07-22 09:49:00,81.5,73.2,29.06,NW,315,2.7,2.7,76,0.00,,---,0.00,VWS V14.01,2013-07-22 14:49:00,
2013-07-22 09:55:00,81.3,73.0,29.06,WSW,248,4.7,4.7,76,0.00,,---,0.00,VWS V14.01,2013-07-22 14:55:00,
2013-07-22 10:00:00,82.0,73.7,29.06,SW,225,6.3,6.3,76,0.00,,---,0.00,VWS V14.01,2013-07-22 15:00:00,
2013-07-22 10:05:00,81.1,72.5,29.06,SW,225,6.5,6.5,75,0.00,,---,0.00,VWS V14.01,2013-07-22 15:05:00,
2013-07-22 10:10:00,81.9,73.6,29.06,SW,225,1.6,2.9,76,0.00,,---,0.00,VWS V14.01,2013-07-22 15:10:00,
2013-07-22 10:15:00,82.2,73.9,29.06,SSW,202,2.0,2.0,76,0.00,,---,0.00,VWS V14.01,2013-07-22 15:15:00,
2013-07-22 10:20:00,82.4,73.7,29.06,West,270,3.6,4.0,75,0.00,,---,0.00,VWS V14.01,2013-07-22 15:20:00,
2013-07-22 10:25:00,83.1,74.8,29.06,SSW,202,4.0,4.0,76,0.00,,---,0.00,VWS V14.01,2013-07-22 15:25:00,
2013-07-22 10:30:00,83.7,74.9,29.06,SW,225,5.4,5.4,75,0.00,,---,0.00,VWS V14.01,2013-07-22 15:30:00,
2013-07-22 10:35:00,83.8,74.7,29.06,SW,225,5.8,6.0,74,0.00,,---,0.00,VWS V14.01,2013-07-22 15:35:00,
2013-07-22 10:40:00,84.2,75.0,29.06,East,90,1.1,1.1,74,0.00,,---,0.00,VWS V14.01,2013-07-22 15:40:00,
2013-07-22 10:45:00,84.0,74.4,29.06,West,270,1.1,1.1,73,0.00,,---,0.00,VWS V14.01,2013-07-22 15:45:00,
2013-07-22 10:51:00,83.3,73.3,29.06,West,270,4.0,4.0,72,0.00,,---,0.00,VWS V14.01,2013-07-22 15:51:00,
2013-07-22 10:56:00,83.8,74.3,29.06,SSW,202,0.0,0.0,73,0.00,,---,0.00,VWS V14.01,2013-07-22 15:56:00,
2013-07-22 11:01:00,84.4,74.8,29.06,South,180,1.3,1.3,73,0.00,,---,0.00,VWS V14.01,2013-07-22 16:01:00,
2013-07-22 11:06:00,84.7,75.1,29.06,West,270,4.9,4.9,73,0.00,,---,0.00,VWS V14.01,2013-07-22 16:06:00,
2013-07-22 11:11:00,84.7,74.7,29.06,WSW,248,2.0,2.0,72,0.00,,---,0.00,VWS V14.01,2013-07-22 16:11:00,
2013-07-22 11:16:00,83.7,73.3,29.06,West,270,2.7,2.7,71,0.00,,---,0.00,VWS V14.01,2013-07-22 16:16:00,
2013-07-22 11:21:00,83.7,73.7,29.06,West,270,3.1,4.3,72,0.00,,---,0.00,VWS V14.01,2013-07-22 16:21:00,
2013-07-22 11:26:00,84.0,74.0,29.06,WSW,248,3.8,3.8,72,0.00,,---,0.00,VWS V14.01,2013-07-22 16:26:00,
2013-07-22 11:31:00,84.0,73.6,29.06,SW,225,3.6,5.4,71,0.00,,---,0.00,VWS V14.01,2013-07-22 16:31:00,
2013-07-22 11:36:00,84.7,73.9,29.06,WSW,248,4.9,4.9,70,0.00,,---,0.00,VWS V14.01,2013-07-22 16:36:00,
2013-07-22 11:41:00,86.0,75.1,29.06,NNW,338,3.4,3.6,70,0.00,,---,0.00,VWS V14.01,2013-07-22 16:41:00,
2013-07-22 11:46:00,86.2,74.4,29.06,West,270,5.4,5.4,68,0.00,,---,0.00,VWS V14.01,2013-07-22 16:46:00,
2013-07-22 11:51:00,86.4,74.1,29.06,WSW,248,2.7,3.6,67,0.00,,---,0.00,VWS V14.01,2013-07-22 16:51:00,
2013-07-22 11:57:00,85.3,73.5,29.06,West,270,3.1,3.1,68,0.00,,---,0.00,VWS V14.01,2013-07-22 16:57:00,
2013-07-22 12:02:00,85.6,73.0,29.06,East,90,3.6,3.6,66,0.00,,---,0.00,VWS V14.01,2013-07-22 17:02:00,
2013-07-22 12:07:00,85.5,73.3,29.06,North,0,4.3,4.3,67,0.00,,---,0.00,VWS V14.01,2013-07-22 17:07:00,
2013-07-22 12:12:00,85.5,72.8,29.06,South,180,1.6,3.8,66,0.00,,---,0.00,VWS V14.01,2013-07-22 17:12:00,
2013-07-22 12:17:00,85.5,72.8,29.06,West,270,3.1,3.1,66,0.00,,---,0.00,VWS V14.01,2013-07-22 17:17:00,
2013-07-22 12:22:00,86.0,73.3,29.06,WSW,248,3.1,5.6,66,0.00,,---,0.00,VWS V14.01,2013-07-22 17:22:00,
2013-07-22 12:27:00,86.7,74.0,29.06,SW,225,5.6,5.6,66,0.00,,---,0.00,VWS V14.01,2013-07-22 17:27:00,
2013-07-22 12:32:00,86.5,73.8,29.06,East,90,1.3,1.3,66,0.00,,---,0.00,VWS V14.01,2013-07-22 17:32:00,
2013-07-22 12:37:00,86.9,74.2,29.06,SSW,202,2.0,2.9,66,0.00,,---,0.00,VWS V14.01,2013-07-22 17:37:00,
2013-07-22 12:42:00,87.1,73.9,29.03,WSW,248,5.6,5.6,65,0.00,,---,0.00,VWS V14.01,2013-07-22 17:42:00,
2013-07-22 12:48:00,86.9,72.8,29.03,WSW,248,3.4,3.4,63,0.00,,---,0.00,VWS V14.01,2013-07-22 17:48:00,
2013-07-22 12:53:00,86.2,72.1,29.03,North,0,0.0,0.0,63,0.00,,---,0.00,VWS V14.01,2013-07-22 17:53:00,
2013-07-22 12:58:00,86.5,71.5,29.03,North,0,1.6,1.6,61,0.00,,---,0.00,VWS V14.01,2013-07-22 17:58:00,
2013-07-22 13:03:00,86.4,70.8,29.03,NE,45,0.0,1.6,60,0.00,,---,0.00,VWS V14.01,2013-07-22 18:03:00,
2013-07-22 13:08:00,86.7,71.7,29.03,WSW,248,3.8,3.8,61,0.00,,---,0.00,VWS V14.01,2013-07-22 18:08:00,
2013-07-22 13:13:00,87.4,70.9,29.03,NNW,338,3.4,3.4,58,0.00,,---,0.00,VWS V14.01,2013-07-22 18:13:00,
2013-07-22 13:18:00,87.3,69.7,29.03,South,180,1.1,3.6,56,0.00,,---,0.00,VWS V14.01,2013-07-22 18:18:00,
2013-07-22 13:23:00,86.7,69.7,29.03,SW,225,1.6,3.4,57,0.00,,---,0.00,VWS V14.01,2013-07-22 18:23:00,
2013-07-22 13:29:00,87.1,70.0,29.03,West,270,3.1,3.1,57,0.00,,---,0.00,VWS V14.01,2013-07-22 18:29:00,
2013-07-22 13:34:00,87.8,71.7,29.03,SSW,202,0.9,4.3,59,0.00,,---,0.00,VWS V14.01,2013-07-22 18:34:00,
2013-07-22 13:39:00,88.3,71.7,29.03,SW,225,4.0,4.9,58,0.00,,---,0.00,VWS V14.01,2013-07-22 18:39:00,
2013-07-22 13:44:00,88.5,70.8,29.03,West,270,2.7,2.7,56,0.00,,---,0.00,VWS V14.01,2013-07-22 18:44:00,
2013-07-22 13:49:00,88.9,71.7,29.03,SW,225,5.8,5.8,57,0.00,,---,0.00,VWS V14.01,2013-07-22 18:49:00,
2013-07-22 13:54:00,89.4,71.7,29.03,NW,315,1.3,3.1,56,0.00,,---,0.00,VWS V14.01,2013-07-22 18:54:00,
2013-07-22 14:00:00,88.9,71.2,29.03,SSW,202,1.1,1.1,56,0.00,,---,0.00,VWS V14.01,2013-07-22 19:00:00,
2013-07-22 14:05:00,90.3,73.0,29.03,West,270,3.8,4.7,57,0.00,,---,0.00,VWS V14.01,2013-07-22 19:05:00,
2013-07-22 14:10:00,91.4,73.0,29.03,SW,225,3.8,3.8,55,0.00,,---,0.00,VWS V14.01,2013-07-22 19:10:00,
2013-07-22 14:15:00,92.3,73.3,29.03,SSW,202,3.4,3.4,54,0.00,,---,0.00,VWS V14.01,2013-07-22 19:15:00,
2013-07-22 14:20:00,92.3,73.3,29.03,West,270,1.6,1.6,54,0.00,,---,0.00,VWS V14.01,2013-07-22 19:20:00,
2013-07-22 14:25:00,91.8,73.8,29.03,SSW,202,4.0,4.0,56,0.00,,---,0.00,VWS V14.01,2013-07-22 19:25:00,
2013-07-22 14:30:00,91.6,73.1,29.03,West,270,4.0,7.4,55,0.00,,---,0.00,VWS V14.01,2013-07-22 19:30:00,
2013-07-22 14:35:00,91.4,73.5,29.03,South,180,3.6,4.0,56,0.00,,---,0.00,VWS V14.01,2013-07-22 19:35:00,
2013-07-22 14:41:00,91.8,73.3,29.03,SW,225,3.6,4.3,55,0.00,,---,0.00,VWS V14.01,2013-07-22 19:41:00,
2013-07-22 14:46:00,91.8,72.8,29.03,South,180,5.8,5.8,54,0.00,,---,0.00,VWS V14.01,2013-07-22 19:46:00,
2013-07-22 14:51:00,91.4,71.9,29.03,SSW,202,6.5,6.5,53,0.00,,---,0.00,VWS V14.01,2013-07-22 19:51:00,
2013-07-22 14:56:00,91.4,71.9,29.03,WSW,248,4.3,4.3,53,0.00,,---,0.00,VWS V14.01,2013-07-22 19:56:00,
2013-07-22 15:01:00,90.5,70.5,29.03,SW,225,2.0,2.0,52,0.00,,---,0.00,VWS V14.01,2013-07-22 20:01:00,
2013-07-22 15:07:00,90.0,70.6,29.03,WSW,248,3.4,3.4,53,0.00,,---,0.00,VWS V14.01,2013-07-22 20:07:00,
2013-07-22 15:12:00,90.0,70.6,29.03,South,180,0.0,0.0,53,0.00,,---,0.00,VWS V14.01,2013-07-22 20:12:00,
2013-07-22 15:17:00,90.0,70.6,29.03,South,180,5.8,5.8,53,0.00,,---,0.00,VWS V14.01,2013-07-22 20:17:00,
2013-07-22 15:18:00,90.0,70.6,29.03,SW,225,5.4,5.8,53,0.00,,---,0.00,VWS V14.01,2013-07-22 20:18:00,
2013-07-22 15:23:00,90.3,71.4,29.03,South,180,3.6,3.6,54,0.00,,---,0.00,VWS V14.01,2013-07-22 20:23:00,
2013-07-22 15:28:00,90.3,72.0,29.03,SSW,202,6.3,6.3,55,0.00,,---,0.00,VWS V14.01,2013-07-22 20:28:00,
2013-07-22 15:33:00,89.8,70.9,29.03,WSW,248,2.9,4.3,54,0.00,,---,0.00,VWS V14.01,2013-07-22 20:33:00,
2013-07-22 15:38:00,89.8,71.5,29.03,SW,225,3.4,3.4,55,0.00,,---,0.00,VWS V14.01,2013-07-22 20:38:00,
2013-07-22 15:43:00,90.5,72.7,29.03,SSW,202,1.3,4.3,56,0.00,,---,0.00,VWS V14.01,2013-07-22 20:43:00,
2013-07-22 15:44:00,90.5,72.7,29.03,SW,225,1.3,1.3,56,0.00,,---,0.00,VWS V14.01,2013-07-22 20:44:00,
2013-07-22 15:49:00,90.7,72.3,29.03,South,180,3.8,5.6,55,0.00,,---,0.00,VWS V14.01,2013-07-22 20:49:00,
2013-07-22 15:54:00,90.1,71.3,29.03,SW,225,3.6,3.6,54,0.00,,---,0.00,VWS V14.01,2013-07-22 20:54:00,
2013-07-22 15:59:00,90.7,71.8,29.00,West,270,2.7,2.7,54,0.00,,---,0.00,VWS V14.01,2013-07-22 20:59:00,
2013-07-22 16:04:00,90.1,71.3,29.00,North,0,2.9,2.9,54,0.00,,---,0.00,VWS V14.01,2013-07-22 21:04:00,
2013-07-22 16:09:00,90.1,71.8,29.00,SSE,158,2.5,3.4,55,0.00,,---,0.00,VWS V14.01,2013-07-22 21:09:00,
2013-07-22 16:14:00,90.7,72.3,29.00,SW,225,4.9,4.9,55,0.00,,---,0.00,VWS V14.01,2013-07-22 21:14:00,
2013-07-22 16:19:00,90.9,71.9,29.00,SSW,202,2.9,2.9,54,0.00,,---,0.00,VWS V14.01,2013-07-22 21:19:00,
2013-07-22 16:25:00,90.1,71.3,29.00,SW,225,3.8,3.8,54,0.00,,---,0.00,VWS V14.01,2013-07-22 21:25:00,
2013-07-22 16:30:00,89.8,70.9,29.00,SSW,202,5.6,5.6,54,0.00,,---,0.00,VWS V14.01,2013-07-22 21:30:00,
2013-07-22 16:35:00,89.6,71.3,29.00,SSW,202,5.4,5.4,55,0.00,,---,0.00,VWS V14.01,2013-07-22 21:35:00,
2013-07-22 16:40:00,90.0,72.2,29.00,SW,225,3.8,3.8,56,0.00,,---,0.00,VWS V14.01,2013-07-22 21:40:00,
2013-07-22 16:45:00,90.0,71.6,29.00,SW,225,4.9,4.9,55,0.00,,---,0.00,VWS V14.01,2013-07-22 21:45:00,
2013-07-22 16:50:00,89.2,71.5,29.00,SSW,202,2.9,4.3,56,0.00,,---,0.00,VWS V14.01,2013-07-22 21:50:00,
2013-07-22 16:55:00,89.2,71.5,29.00,WNW,292,2.5,2.5,56,0.00,,---,0.00,VWS V14.01,2013-07-22 21:55:00,
2013-07-22 17:00:00,89.6,71.8,29.00,SSW,202,4.9,4.9,56,0.00,,---,0.00,VWS V14.01,2013-07-22 22:00:00,
2013-07-22 17:05:00,90.0,71.6,29.00,South,180,4.9,4.9,55,0.00,,---,0.00,VWS V14.01,2013-07-22 22:05:00,
2013-07-22 17:10:00,89.8,70.9,29.00,West,270,6.0,6.0,54,0.00,,---,0.00,VWS V14.01,2013-07-22 22:10:00,
2013-07-22 17:15:00,90.0,71.6,29.00,SW,225,3.6,3.6,55,0.00,,---,0.00,VWS V14.01,2013-07-22 22:15:00,
2013-07-22 17:20:00,90.1,71.8,29.00,SW,225,5.8,5.8,55,0.00,,---,0.00,VWS V14.01,2013-07-22 22:20:00,
2013-07-22 17:25:00,90.1,71.8,29.00,SSW,202,5.6,7.4,55,0.00,,---,0.00,VWS V14.01,2013-07-22 22:25:00,
2013-07-22 17:30:00,90.0,71.6,29.00,South,180,3.1,3.1,55,0.00,,---,0.00,VWS V14.01,2013-07-22 22:30:00,
2013-07-22 17:36:00,89.8,71.5,29.00,SSW,202,5.8,5.8,55,0.00,,---,0.00,VWS V14.01,2013-07-22 22:36:00,
2013-07-22 17:41:00,89.2,71.5,29.00,SW,225,7.8,7.8,56,0.00,,---,0.00,VWS V14.01,2013-07-22 22:41:00,
2013-07-22 17:46:00,88.9,71.2,29.00,SSW,202,4.0,5.6,56,0.00,,---,0.00,VWS V14.01,2013-07-22 22:46:00,
2013-07-22 17:51:00,88.9,71.2,29.00,WSW,248,2.7,3.6,56,0.00,,---,0.00,VWS V14.01,2013-07-22 22:51:00,
2013-07-22 17:56:00,88.7,71.0,28.97,South,180,4.9,5.6,56,0.00,,---,0.00,VWS V14.01,2013-07-22 22:56:00,
2013-07-22 18:01:00,89.1,70.8,28.97,West,270,3.4,3.4,55,0.00,,---,0.00,VWS V14.01,2013-07-22 23:01:00,
2013-07-22 18:06:00,88.7,71.0,28.97,SW,225,6.0,6.0,56,0.00,,---,0.00,VWS V14.01,2013-07-22 23:06:00,
2013-07-22 18:11:00,88.3,71.2,28.97,SW,225,3.6,3.6,57,0.00,,---,0.00,VWS V14.01,2013-07-22 23:11:00,
2013-07-22 18:16:00,88.3,71.2,28.97,West,270,3.8,3.8,57,0.00,,---,0.00,VWS V14.01,2013-07-22 23:16:00,
2013-07-22 18:21:00,88.3,71.2,28.97,WNW,292,2.7,3.1,57,0.00,,---,0.00,VWS V14.01,2013-07-22 23:21:00,
2013-07-22 18:26:00,87.6,71.0,28.97,West,270,3.6,3.6,58,0.00,,---,0.00,VWS V14.01,2013-07-22 23:26:00,
2013-07-22 18:31:00,87.3,70.7,28.97,SW,225,6.5,6.5,58,0.00,,---,0.00,VWS V14.01,2013-07-22 23:31:00,
2013-07-22 18:36:00,87.1,71.0,28.97,West,270,3.4,3.4,59,0.00,,---,0.00,VWS V14.01,2013-07-22 23:36:00,
2013-07-22 18:41:00,87.1,71.0,28.97,SSW,202,2.9,4.0,59,0.00,,---,0.00,VWS V14.01,2013-07-22 23:41:00,
2013-07-22 18:46:00,86.9,70.9,28.97,SW,225,3.1,3.1,59,0.00,,---,0.00,VWS V14.01,2013-07-22 23:46:00,
2013-07-22 18:51:00,86.7,71.2,28.97,SW,225,6.0,6.0,60,0.00,,---,0.00,VWS V14.01,2013-07-22 23:51:00,
2013-07-22 18:56:00,86.5,71.0,28.97,SW,225,2.7,2.7,60,0.00,,---,0.00,VWS V14.01,2013-07-22 23:56:00,
2013-07-22 19:02:00,86.4,71.3,28.97,SW,225,1.6,1.6,61,0.00,,---,0.00,VWS V14.01,2013-07-23 00:02:00,
2013-07-22 19:07:00,86.4,71.8,28.97,SSW,202,3.8,3.8,62,0.00,,---,0.00,VWS V14.01,2013-07-23 00:07:00,
2013-07-22 19:12:00,86.2,71.6,28.97,SSW,202,3.4,3.4,62,0.00,,---,0.00,VWS V14.01,2013-07-23 00:12:00,
2013-07-22 19:17:00,86.0,71.5,28.97,SW,225,5.6,5.6,62,0.00,,---,0.00,VWS V14.01,2013-07-23 00:17:00,
2013-07-22 19:22:00,85.8,71.8,28.97,SW,225,3.8,3.8,63,0.00,,---,0.00,VWS V14.01,2013-07-23 00:22:00,
2013-07-22 19:27:00,85.5,71.4,28.97,SSW,202,8.5,8.5,63,0.00,,---,0.00,VWS V14.01,2013-07-23 00:27:00,
2013-07-22 19:32:00,85.5,71.9,28.97,SSW,202,2.7,3.6,64,0.00,,---,0.00,VWS V14.01,2013-07-23 00:32:00,
2013-07-22 19:37:00,85.3,71.7,28.97,SW,225,2.0,2.0,64,0.00,,---,0.00,VWS V14.01,2013-07-23 00:37:00,
2013-07-22 19:42:00,84.9,71.4,28.97,SW,225,3.6,3.6,64,0.00,,---,0.00,VWS V14.01,2013-07-23 00:42:00,
2013-07-22 19:47:00,84.6,71.1,28.97,South,180,3.8,3.8,64,0.00,,---,0.00,VWS V14.01,2013-07-23 00:47:00,
2013-07-22 19:52:00,84.4,71.3,28.97,SSW,202,3.4,3.4,65,0.00,,---,0.00,VWS V14.01,2013-07-23 00:52:00,
2013-07-22 19:57:00,84.2,71.2,28.97,SSW,202,1.6,3.1,65,0.00,,---,0.00,VWS V14.01,2013-07-23 00:57:00,
2013-07-22 20:02:00,84.0,71.4,28.97,SSW,202,1.3,1.6,66,0.00,,---,0.00,VWS V14.01,2013-07-23 01:02:00,
2013-07-22 20:08:00,83.8,71.3,28.97,SSW,202,0.0,0.0,66,0.00,,---,0.00,VWS V14.01,2013-07-23 01:08:00,
2013-07-22 20:13:00,83.7,71.1,28.97,SSW,202,1.3,1.3,66,0.00,,---,0.00,VWS V14.01,2013-07-23 01:13:00,
2013-07-22 20:18:00,83.3,71.2,28.97,SSW,202,2.0,2.0,67,0.00,,---,0.00,VWS V14.01,2013-07-23 01:18:00,
2013-07-22 20:23:00,82.9,70.9,28.97,SW,225,0.0,0.0,67,0.00,,---,0.00,VWS V14.01,2013-07-23 01:23:00,
2013-07-22 20:28:00,82.8,70.7,29.00,SSW,202,0.0,0.0,67,0.00,,---,0.00,VWS V14.01,2013-07-23 01:28:00,
2013-07-22 20:33:00,82.4,70.8,29.00,SW,225,0.0,0.0,68,0.00,,---,0.00,VWS V14.01,2013-07-23 01:33:00,
2013-07-22 20:38:00,82.2,70.6,29.00,SW,225,0.0,2.5,68,0.00,,---,0.00,VWS V14.01,2013-07-23 01:38:00,
2013-07-22 20:43:00,82.0,70.9,29.00,SSW,202,0.0,0.0,69,0.00,,---,0.00,VWS V14.01,2013-07-23 01:43:00,
2013-07-22 20:48:00,81.9,70.7,29.00,SSW,202,0.0,0.0,69,0.00,,---,0.00,VWS V14.01,2013-07-23 01:48:00,
2013-07-22 20:54:00,81.5,70.8,29.00,SSW,202,0.0,0.0,70,0.00,,---,0.00,VWS V14.01,2013-07-23 01:54:00,
2013-07-22 20:59:00,81.1,70.8,29.00,SSW,202,0.0,0.0,71,0.00,,---,0.00,VWS V14.01,2013-07-23 01:59:00,
2013-07-22 21:04:00,80.6,70.3,29.00,SSW,202,0.0,0.0,71,0.00,,---,0.00,VWS V14.01,2013-07-23 02:04:00,
2013-07-22 21:09:00,80.2,70.8,29.00,SSW,202,0.0,0.0,73,0.00,,---,0.00,VWS V14.01,2013-07-23 02:09:00,
2013-07-22 21:14:00,80.1,70.6,29.00,SSW,202,0.0,0.0,73,0.00,,---,0.00,VWS V14.01,2013-07-23 02:14:00,
2013-07-22 21:19:00,79.9,70.9,29.00,SSW,202,0.0,0.0,74,0.00,,---,0.00,VWS V14.01,2013-07-23 02:19:00,
2013-07-22 21:24:00,79.5,70.5,29.00,SSW,202,0.0,0.0,74,0.00,,---,0.00,VWS V14.01,2013-07-23 02:24:00,
2013-07-22 21:29:00,79.2,70.6,29.00,SSW,202,0.0,0.0,75,0.00,,---,0.00,VWS V14.01,2013-07-23 02:29:00,
2013-07-22 21:34:00,79.2,70.6,29.00,SSW,202,0.0,0.0,75,0.00,,---,0.00,VWS V14.01,2013-07-23 02:34:00,
2013-07-22 21:39:00,79.0,70.4,29.00,SSW,202,0.0,0.0,75,0.00,,---,0.00,VWS V14.01,2013-07-23 02:39:00,
2013-07-22 21:44:00,78.8,70.6,29.00,SSW,202,0.0,0.0,76,0.00,,---,0.00,VWS V14.01,2013-07-23 02:44:00,
2013-07-22 21:49:00,78.8,70.6,29.00,SSW,202,0.0,0.0,76,0.00,,---,0.00,VWS V14.01,2013-07-23 02:49:00,
2013-07-22 21:55:00,78.6,70.4,29.00,SSW,202,0.0,0.0,76,0.00,,---,0.00,VWS V14.01,2013-07-23 02:55:00,
2013-07-22 22:00:00,78.6,70.8,29.00,SSW,202,0.0,1.3,77,0.00,,---,0.00,VWS V14.01,2013-07-23 03:00:00,
2013-07-22 22:05:00,78.6,70.8,29.00,SSW,202,1.3,1.3,77,0.00,,---,0.00,VWS V14.01,2013-07-23 03:05:00,
2013-07-22 22:10:00,78.4,70.6,29.00,SW,225,0.0,1.3,77,0.00,,---,0.00,VWS V14.01,2013-07-23 03:10:00,
2013-07-22 22:15:00,78.3,70.5,29.00,SW,225,0.0,0.0,77,0.00,,---,0.00,VWS V14.01,2013-07-23 03:15:00,
2013-07-22 22:20:00,78.4,70.6,29.00,SW,225,0.9,0.9,77,0.00,,---,0.00,VWS V14.01,2013-07-23 03:20:00,
2013-07-22 22:25:00,78.3,70.8,29.00,SW,225,1.6,1.6,78,0.00,,---,0.00,VWS V14.01,2013-07-23 03:25:00,
2013-07-22 22:30:00,78.3,70.8,29.03,SW,225,0.0,1.6,78,0.00,,---,0.00,VWS V14.01,2013-07-23 03:30:00,
2013-07-22 22:35:00,78.1,70.7,29.03,SW,225,1.3,2.2,78,0.00,,---,0.00,VWS V14.01,2013-07-23 03:35:00,
2013-07-22 22:40:00,78.1,70.7,29.03,South,180,0.0,0.0,78,0.00,,---,0.00,VWS V14.01,2013-07-23 03:40:00,
2013-07-22 22:45:00,78.1,71.0,29.03,SSW,202,1.6,1.6,79,0.00,,---,0.00,VWS V14.01,2013-07-23 03:45:00,
2013-07-22 22:51:00,78.3,71.2,29.03,SW,225,2.0,3.6,79,0.00,,---,0.00,VWS V14.01,2013-07-23 03:51:00,
2013-07-22 22:56:00,78.3,71.2,29.03,SSW,202,2.5,2.5,79,0.00,,---,0.00,VWS V14.01,2013-07-23 03:56:00,
2013-07-22 23:01:00,78.3,71.2,29.03,WSW,248,2.5,2.5,79,0.00,,---,0.00,VWS V14.01,2013-07-23 04:01:00,
2013-07-22 23:02:00,78.3,71.2,29.03,WSW,248,2.7,2.7,79,0.00,,---,0.00,VWS V14.01,2013-07-23 04:02:00,
2013-07-22 23:07:00,78.3,71.2,29.03,SSW,202,0.9,0.9,79,0.00,,---,0.00,VWS V14.01,2013-07-23 04:07:00,
2013-07-22 23:13:00,78.3,71.2,29.03,SSW,202,2.5,2.5,79,0.00,,---,0.00,VWS V14.01,2013-07-23 04:13:00,
2013-07-22 23:18:00,78.3,71.2,29.03,ENE,68,8.5,8.5,79,0.00,,---,0.00,VWS V14.01,2013-07-23 04:18:00,
2013-07-22 23:23:00,77.2,66.2,29.03,NNW,338,4.7,4.7,69,0.00,,---,0.00,VWS V14.01,2013-07-23 04:23:00,
2013-07-22 23:28:00,76.5,65.5,29.09,NW,315,7.6,7.6,69,0.00,,---,0.00,VWS V14.01,2013-07-23 04:28:00,
2013-07-22 23:33:00,75.9,65.4,29.09,West,270,7.4,7.4,70,0.00,,---,0.00,VWS V14.01,2013-07-23 04:33:00,
2013-07-22 23:38:00,74.8,66.0,29.09,WNW,292,5.6,5.6,74,0.04,,---,0.04,VWS V14.01,2013-07-23 04:38:00,
2013-07-22 23:43:00,73.6,65.6,29.09,WNW,292,5.6,5.6,76,0.08,,---,0.08,VWS V14.01,2013-07-23 04:43:00,
2013-07-22 23:48:00,72.9,66.0,29.09,WSW,248,5.4,5.4,79,0.12,,---,0.12,VWS V14.01,2013-07-23 04:48:00,
2013-07-22 23:53:00,72.5,66.0,29.09,WSW,248,3.1,3.1,80,0.12,,---,0.12,VWS V14.01,2013-07-23 04:53:00,
2013-07-22 23:59:00,72.1,66.0,29.09,NE,45,1.1,1.1,81,0.16,,---,0.16,VWS V14.01,2013-07-23 04:59:00,